sensor_id;sensor_type;location;lat;lon;timestamp;P1;durP1;ratioP1;P2;durP2;ratioP2
59310;SDS011;45078;51.654;21.250;2023-05-21T00:02:25;10.18;;;3.97;;
59310;SDS011;45078;51.654;21.250;2023-05-21T00:04:54;7.05;;;4.57;;
59310;SDS011;45078;51.654;21.250;2023-05-21T00:07:19;11.95;;;4.38;;
59310;SDS011;45078;51.654;21.250;2023-05-21T00:09:45;6.32;;;4.00;;
59310;SDS011;45078;51.654;21.250;2023-05-21T00:12:11;6.60;;;4.25;;
59310;SDS011;45078;51.654;21.250;2023-05-21T00:14:37;6.57;;;3.90;;
59310;SDS011;45078;51.654;21.250;2023-05-21T00:17:03;6.72;;;4.32;;
59310;SDS011;45078;51.654;21.250;2023-05-21T00:19:29;6.32;;;4.20;;
59310;SDS011;45078;51.654;21.250;2023-05-21T00:21:56;5.97;;;3.83;;
59310;SDS011;45078;51.654;21.250;2023-05-21T00:24:26;6.25;;;4.00;;
59310;SDS011;45078;51.654;21.250;2023-05-21T00:26:52;9.63;;;4.40;;
59310;SDS011;45078;51.654;21.250;2023-05-21T00:29:18;8.38;;;4.63;;
59310;SDS011;45078;51.654;21.250;2023-05-21T00:31:43;5.90;;;4.32;;
59310;SDS011;45078;51.654;21.250;2023-05-21T00:34:09;9.77;;;4.53;;
59310;SDS011;45078;51.654;21.250;2023-05-21T00:36:37;11.43;;;5.22;;
59310;SDS011;45078;51.654;21.250;2023-05-21T00:39:04;6.22;;;4.18;;
59310;SDS011;45078;51.654;21.250;2023-05-21T00:41:30;7.55;;;4.22;;
59310;SDS011;45078;51.654;21.250;2023-05-21T00:43:56;7.32;;;4.13;;
59310;SDS011;45078;51.654;21.250;2023-05-21T00:46:24;6.88;;;4.38;;
59310;SDS011;45078;51.654;21.250;2023-05-21T00:48:52;9.80;;;5.30;;
59310;SDS011;45078;51.654;21.250;2023-05-21T00:51:19;5.60;;;3.80;;
59310;SDS011;45078;51.654;21.250;2023-05-21T00:56:22;8.95;;;5.95;;
59310;SDS011;45078;51.654;21.250;2023-05-21T00:58:52;6.53;;;4.00;;
59310;SDS011;45078;51.654;21.250;2023-05-21T01:01:21;7.32;;;3.92;;
59310;SDS011;45078;51.654;21.250;2023-05-21T01:03:50;6.10;;;3.88;;
59310;SDS011;45078;51.654;21.250;2023-05-21T01:06:21;5.43;;;3.80;;
59310;SDS011;45078;51.654;21.250;2023-05-21T01:08:47;5.72;;;3.65;;
59310;SDS011;45078;51.654;21.250;2023-05-21T01:11:14;5.97;;;3.80;;
59310;SDS011;45078;51.654;21.250;2023-05-21T01:13:42;8.20;;;4.63;;
59310;SDS011;45078;51.654;21.250;2023-05-21T01:16:10;6.05;;;3.80;;
59310;SDS011;45078;51.654;21.250;2023-05-21T01:18:37;9.20;;;3.90;;
59310;SDS011;45078;51.654;21.250;2023-05-21T01:21:03;9.82;;;4.00;;
59310;SDS011;45078;51.654;21.250;2023-05-21T01:23:31;7.55;;;4.38;;
59310;SDS011;45078;51.654;21.250;2023-05-21T01:25:57;9.40;;;3.47;;
59310;SDS011;45078;51.654;21.250;2023-05-21T01:28:23;5.47;;;4.10;;
59310;SDS011;45078;51.654;21.250;2023-05-21T01:30:49;6.03;;;3.85;;
59310;SDS011;45078;51.654;21.250;2023-05-21T01:35:49;6.55;;;3.92;;
59310;SDS011;45078;51.654;21.250;2023-05-21T01:41:07;7.40;;;4.32;;
59310;SDS011;45078;51.654;21.250;2023-05-21T01:43:37;5.47;;;3.55;;
59310;SDS011;45078;51.654;21.250;2023-05-21T01:46:06;4.82;;;3.20;;
59310;SDS011;45078;51.654;21.250;2023-05-21T01:48:35;5.60;;;3.58;;
59310;SDS011;45078;51.654;21.250;2023-05-21T01:51:02;5.25;;;3.40;;
59310;SDS011;45078;51.654;21.250;2023-05-21T01:53:30;7.82;;;4.00;;
59310;SDS011;45078;51.654;21.250;2023-05-21T01:55:55;8.55;;;4.10;;
59310;SDS011;45078;51.654;21.250;2023-05-21T01:58:21;10.07;;;4.07;;
59310;SDS011;45078;51.654;21.250;2023-05-21T02:00:48;6.38;;;4.35;;
59310;SDS011;45078;51.654;21.250;2023-05-21T02:03:17;7.53;;;4.20;;
59310;SDS011;45078;51.654;21.250;2023-05-21T02:05:44;7.10;;;3.95;;
59310;SDS011;45078;51.654;21.250;2023-05-21T02:08:11;10.27;;;4.20;;
59310;SDS011;45078;51.654;21.250;2023-05-21T02:10:39;6.28;;;3.85;;
59310;SDS011;45078;51.654;21.250;2023-05-21T02:13:05;5.63;;;3.40;;
59310;SDS011;45078;51.654;21.250;2023-05-21T02:15:31;5.53;;;3.55;;
59310;SDS011;45078;51.654;21.250;2023-05-21T02:17:58;7.07;;;3.60;;
59310;SDS011;45078;51.654;21.250;2023-05-21T02:20:24;8.45;;;3.92;;
59310;SDS011;45078;51.654;21.250;2023-05-21T02:22:50;6.15;;;3.67;;
59310;SDS011;45078;51.654;21.250;2023-05-21T02:25:16;6.10;;;3.70;;
59310;SDS011;45078;51.654;21.250;2023-05-21T02:27:44;7.07;;;3.88;;
59310;SDS011;45078;51.654;21.250;2023-05-21T02:30:11;5.30;;;3.60;;
59310;SDS011;45078;51.654;21.250;2023-05-21T02:32:39;10.40;;;4.40;;
59310;SDS011;45078;51.654;21.250;2023-05-21T02:35:09;9.27;;;4.55;;
59310;SDS011;45078;51.654;21.250;2023-05-21T02:37:37;12.60;;;5.03;;
59310;SDS011;45078;51.654;21.250;2023-05-21T02:40:04;8.93;;;4.45;;
59310;SDS011;45078;51.654;21.250;2023-05-21T02:42:32;6.18;;;3.60;;
59310;SDS011;45078;51.654;21.250;2023-05-21T02:44:58;10.55;;;4.00;;
59310;SDS011;45078;51.654;21.250;2023-05-21T02:47:24;6.88;;;3.85;;
59310;SDS011;45078;51.654;21.250;2023-05-21T02:49:50;8.90;;;4.03;;
59310;SDS011;45078;51.654;21.250;2023-05-21T02:52:17;6.32;;;3.97;;
59310;SDS011;45078;51.654;21.250;2023-05-21T02:54:44;11.27;;;4.97;;
59310;SDS011;45078;51.654;21.250;2023-05-21T02:57:10;10.73;;;4.70;;
59310;SDS011;45078;51.654;21.250;2023-05-21T02:59:36;16.40;;;5.22;;
59310;SDS011;45078;51.654;21.250;2023-05-21T03:02:02;16.48;;;6.22;;
59310;SDS011;45078;51.654;21.250;2023-05-21T03:04:28;14.75;;;5.88;;
59310;SDS011;45078;51.654;21.250;2023-05-21T03:06:55;13.77;;;5.78;;
59310;SDS011;45078;51.654;21.250;2023-05-21T03:09:21;12.50;;;5.28;;
59310;SDS011;45078;51.654;21.250;2023-05-21T03:11:47;11.52;;;5.60;;
59310;SDS011;45078;51.654;21.250;2023-05-21T03:14:16;8.32;;;4.82;;
59310;SDS011;45078;51.654;21.250;2023-05-21T03:16:42;6.65;;;3.55;;
59310;SDS011;45078;51.654;21.250;2023-05-21T03:19:09;16.02;;;4.03;;
59310;SDS011;45078;51.654;21.250;2023-05-21T03:21:35;8.70;;;4.28;;
59310;SDS011;45078;51.654;21.250;2023-05-21T03:24:02;6.65;;;3.92;;
59310;SDS011;45078;51.654;21.250;2023-05-21T03:26:30;6.38;;;3.53;;
59310;SDS011;45078;51.654;21.250;2023-05-21T03:28:56;5.25;;;3.17;;
59310;SDS011;45078;51.654;21.250;2023-05-21T03:31:22;8.32;;;3.85;;
59310;SDS011;45078;51.654;21.250;2023-05-21T03:33:49;4.97;;;3.30;;
59310;SDS011;45078;51.654;21.250;2023-05-21T03:36:15;9.02;;;3.95;;
59310;SDS011;45078;51.654;21.250;2023-05-21T03:38:41;5.75;;;3.47;;
59310;SDS011;45078;51.654;21.250;2023-05-21T03:41:07;8.10;;;3.90;;
59310;SDS011;45078;51.654;21.250;2023-05-21T03:43:33;9.13;;;4.82;;
59310;SDS011;45078;51.654;21.250;2023-05-21T03:45:59;8.73;;;4.50;;
59310;SDS011;45078;51.654;21.250;2023-05-21T03:48:25;11.63;;;4.13;;
59310;SDS011;45078;51.654;21.250;2023-05-21T03:50:50;17.98;;;4.75;;
59310;SDS011;45078;51.654;21.250;2023-05-21T03:53:16;15.52;;;4.30;;
59310;SDS011;45078;51.654;21.250;2023-05-21T03:55:42;8.38;;;4.13;;
59310;SDS011;45078;51.654;21.250;2023-05-21T03:58:08;7.40;;;3.75;;
59310;SDS011;45078;51.654;21.250;2023-05-21T04:00:34;4.88;;;3.17;;
59310;SDS011;45078;51.654;21.250;2023-05-21T04:03:01;6.03;;;3.20;;
59310;SDS011;45078;51.654;21.250;2023-05-21T04:05:28;4.35;;;3.05;;
59310;SDS011;45078;51.654;21.250;2023-05-21T04:07:53;5.22;;;2.92;;
59310;SDS011;45078;51.654;21.250;2023-05-21T04:10:19;4.35;;;3.35;;
59310;SDS011;45078;51.654;21.250;2023-05-21T04:12:46;6.90;;;3.17;;
59310;SDS011;45078;51.654;21.250;2023-05-21T04:15:16;7.07;;;3.28;;
59310;SDS011;45078;51.654;21.250;2023-05-21T04:17:42;7.05;;;3.47;;
59310;SDS011;45078;51.654;21.250;2023-05-21T04:20:10;5.43;;;2.95;;
59310;SDS011;45078;51.654;21.250;2023-05-21T04:22:41;5.15;;;2.83;;
59310;SDS011;45078;51.654;21.250;2023-05-21T04:25:07;5.65;;;3.00;;
59310;SDS011;45078;51.654;21.250;2023-05-21T04:27:33;12.90;;;4.63;;
59310;SDS011;45078;51.654;21.250;2023-05-21T04:30:00;12.82;;;5.00;;
59310;SDS011;45078;51.654;21.250;2023-05-21T04:32:28;17.40;;;4.90;;
59310;SDS011;45078;51.654;21.250;2023-05-21T04:34:55;8.13;;;3.67;;
59310;SDS011;45078;51.654;21.250;2023-05-21T04:37:21;9.27;;;3.25;;
59310;SDS011;45078;51.654;21.250;2023-05-21T04:39:50;5.38;;;2.97;;
59310;SDS011;45078;51.654;21.250;2023-05-21T04:42:16;6.47;;;3.22;;
59310;SDS011;45078;51.654;21.250;2023-05-21T04:44:43;7.40;;;3.20;;
59310;SDS011;45078;51.654;21.250;2023-05-21T04:47:09;6.32;;;3.17;;
59310;SDS011;45078;51.654;21.250;2023-05-21T04:49:36;9.95;;;3.92;;
59310;SDS011;45078;51.654;21.250;2023-05-21T04:52:02;3.85;;;2.63;;
59310;SDS011;45078;51.654;21.250;2023-05-21T04:54:28;7.07;;;3.35;;
59310;SDS011;45078;51.654;21.250;2023-05-21T04:56:53;6.10;;;2.83;;
59310;SDS011;45078;51.654;21.250;2023-05-21T04:59:20;9.38;;;3.60;;
59310;SDS011;45078;51.654;21.250;2023-05-21T05:01:45;6.78;;;2.88;;
59310;SDS011;45078;51.654;21.250;2023-05-21T05:04:11;6.60;;;2.85;;
59310;SDS011;45078;51.654;21.250;2023-05-21T05:06:37;6.22;;;2.85;;
59310;SDS011;45078;51.654;21.250;2023-05-21T05:09:02;12.57;;;2.40;;
59310;SDS011;45078;51.654;21.250;2023-05-21T05:11:31;4.50;;;2.47;;
59310;SDS011;45078;51.654;21.250;2023-05-21T05:13:57;6.22;;;2.75;;
59310;SDS011;45078;51.654;21.250;2023-05-21T05:16:23;3.03;;;2.28;;
59310;SDS011;45078;51.654;21.250;2023-05-21T05:18:50;5.75;;;2.42;;
59310;SDS011;45078;51.654;21.250;2023-05-21T05:21:20;4.07;;;2.50;;
59310;SDS011;45078;51.654;21.250;2023-05-21T05:23:46;4.30;;;2.30;;
59310;SDS011;45078;51.654;21.250;2023-05-21T05:26:12;5.15;;;2.80;;
59310;SDS011;45078;51.654;21.250;2023-05-21T05:28:38;3.45;;;2.30;;
59310;SDS011;45078;51.654;21.250;2023-05-21T05:31:03;3.95;;;2.45;;
59310;SDS011;45078;51.654;21.250;2023-05-21T05:33:29;3.75;;;2.35;;
59310;SDS011;45078;51.654;21.250;2023-05-21T05:35:55;8.73;;;2.65;;
59310;SDS011;45078;51.654;21.250;2023-05-21T05:38:21;5.78;;;2.95;;
59310;SDS011;45078;51.654;21.250;2023-05-21T05:40:46;4.30;;;2.38;;
59310;SDS011;45078;51.654;21.250;2023-05-21T05:43:12;5.30;;;2.22;;
59310;SDS011;45078;51.654;21.250;2023-05-21T05:45:38;4.28;;;2.60;;
59310;SDS011;45078;51.654;21.250;2023-05-21T05:48:03;5.25;;;3.72;;
59310;SDS011;45078;51.654;21.250;2023-05-21T05:50:29;6.85;;;3.03;;
59310;SDS011;45078;51.654;21.250;2023-05-21T05:52:55;5.47;;;2.60;;
59310;SDS011;45078;51.654;21.250;2023-05-21T05:55:21;7.93;;;2.40;;
59310;SDS011;45078;51.654;21.250;2023-05-21T05:57:49;4.10;;;2.30;;
59310;SDS011;45078;51.654;21.250;2023-05-21T06:00:15;5.30;;;2.80;;
59310;SDS011;45078;51.654;21.250;2023-05-21T06:02:41;6.47;;;2.80;;
59310;SDS011;45078;51.654;21.250;2023-05-21T06:05:07;7.85;;;2.45;;
59310;SDS011;45078;51.654;21.250;2023-05-21T06:07:34;3.58;;;2.10;;
59310;SDS011;45078;51.654;21.250;2023-05-21T06:10:03;5.75;;;2.85;;
59310;SDS011;45078;51.654;21.250;2023-05-21T06:12:30;7.88;;;2.72;;
59310;SDS011;45078;51.654;21.250;2023-05-21T06:14:55;3.40;;;2.28;;
59310;SDS011;45078;51.654;21.250;2023-05-21T06:17:21;4.65;;;2.50;;
59310;SDS011;45078;51.654;21.250;2023-05-21T06:19:47;4.32;;;2.20;;
59310;SDS011;45078;51.654;21.250;2023-05-21T06:22:13;3.97;;;2.53;;
59310;SDS011;45078;51.654;21.250;2023-05-21T06:24:38;5.15;;;2.33;;
59310;SDS011;45078;51.654;21.250;2023-05-21T06:27:04;5.93;;;2.50;;
59310;SDS011;45078;51.654;21.250;2023-05-21T06:29:30;3.50;;;2.20;;
59310;SDS011;45078;51.654;21.250;2023-05-21T06:31:56;3.60;;;2.00;;
59310;SDS011;45078;51.654;21.250;2023-05-21T06:34:22;3.28;;;2.22;;
59310;SDS011;45078;51.654;21.250;2023-05-21T06:36:47;4.35;;;2.15;;
59310;SDS011;45078;51.654;21.250;2023-05-21T06:39:13;5.35;;;2.25;;
59310;SDS011;45078;51.654;21.250;2023-05-21T06:41:39;5.07;;;2.22;;
59310;SDS011;45078;51.654;21.250;2023-05-21T06:44:05;6.70;;;2.20;;
59310;SDS011;45078;51.654;21.250;2023-05-21T06:46:31;5.38;;;2.25;;
59310;SDS011;45078;51.654;21.250;2023-05-21T06:48:56;3.78;;;2.00;;
59310;SDS011;45078;51.654;21.250;2023-05-21T06:51:22;3.53;;;2.30;;
59310;SDS011;45078;51.654;21.250;2023-05-21T06:53:48;3.97;;;2.38;;
59310;SDS011;45078;51.654;21.250;2023-05-21T06:56:13;8.52;;;2.45;;
59310;SDS011;45078;51.654;21.250;2023-05-21T06:58:39;3.13;;;1.90;;
59310;SDS011;45078;51.654;21.250;2023-05-21T07:01:05;6.93;;;2.10;;
59310;SDS011;45078;51.654;21.250;2023-05-21T07:03:31;4.55;;;2.00;;
59310;SDS011;45078;51.654;21.250;2023-05-21T07:05:57;8.68;;;2.28;;
59310;SDS011;45078;51.654;21.250;2023-05-21T07:08:22;5.03;;;1.90;;
59310;SDS011;45078;51.654;21.250;2023-05-21T07:10:48;3.33;;;1.92;;
59310;SDS011;45078;51.654;21.250;2023-05-21T07:13:14;7.93;;;2.40;;
59310;SDS011;45078;51.654;21.250;2023-05-21T07:15:40;5.15;;;2.47;;
59310;SDS011;45078;51.654;21.250;2023-05-21T07:18:06;4.05;;;2.00;;
59310;SDS011;45078;51.654;21.250;2023-05-21T07:20:32;4.72;;;2.10;;
59310;SDS011;45078;51.654;21.250;2023-05-21T07:22:58;6.63;;;2.08;;
59310;SDS011;45078;51.654;21.250;2023-05-21T07:25:23;4.18;;;2.08;;
59310;SDS011;45078;51.654;21.250;2023-05-21T07:27:49;4.43;;;1.70;;
59310;SDS011;45078;51.654;21.250;2023-05-21T07:30:15;4.47;;;2.10;;
59310;SDS011;45078;51.654;21.250;2023-05-21T07:32:42;5.00;;;2.20;;
59310;SDS011;45078;51.654;21.250;2023-05-21T07:35:08;5.25;;;2.13;;
59310;SDS011;45078;51.654;21.250;2023-05-21T07:37:33;3.45;;;1.92;;
59310;SDS011;45078;51.654;21.250;2023-05-21T07:39:59;5.53;;;2.20;;
59310;SDS011;45078;51.654;21.250;2023-05-21T07:42:25;2.58;;;1.88;;
59310;SDS011;45078;51.654;21.250;2023-05-21T07:44:51;4.50;;;2.00;;
59310;SDS011;45078;51.654;21.250;2023-05-21T07:47:17;4.43;;;2.10;;
59310;SDS011;45078;51.654;21.250;2023-05-21T07:49:42;2.92;;;1.88;;
59310;SDS011;45078;51.654;21.250;2023-05-21T07:52:08;3.15;;;2.10;;
59310;SDS011;45078;51.654;21.250;2023-05-21T07:54:34;6.28;;;2.05;;
59310;SDS011;45078;51.654;21.250;2023-05-21T07:56:59;3.83;;;1.98;;
59310;SDS011;45078;51.654;21.250;2023-05-21T07:59:28;3.50;;;2.08;;
59310;SDS011;45078;51.654;21.250;2023-05-21T08:01:54;5.40;;;1.90;;
59310;SDS011;45078;51.654;21.250;2023-05-21T08:04:20;3.95;;;1.83;;
59310;SDS011;45078;51.654;21.250;2023-05-21T08:06:46;6.40;;;1.85;;
59310;SDS011;45078;51.654;21.250;2023-05-21T08:09:12;7.88;;;1.92;;
59310;SDS011;45078;51.654;21.250;2023-05-21T08:11:38;3.67;;;1.70;;
59310;SDS011;45078;51.654;21.250;2023-05-21T08:14:04;4.40;;;2.65;;
59310;SDS011;45078;51.654;21.250;2023-05-21T08:16:30;3.75;;;1.85;;
59310;SDS011;45078;51.654;21.250;2023-05-21T08:18:55;7.38;;;2.50;;
59310;SDS011;45078;51.654;21.250;2023-05-21T08:21:21;5.70;;;2.00;;
59310;SDS011;45078;51.654;21.250;2023-05-21T08:23:47;3.60;;;1.85;;
59310;SDS011;45078;51.654;21.250;2023-05-21T08:26:13;3.40;;;1.90;;
59310;SDS011;45078;51.654;21.250;2023-05-21T08:28:41;4.53;;;1.90;;
59310;SDS011;45078;51.654;21.250;2023-05-21T08:31:07;2.90;;;1.90;;
59310;SDS011;45078;51.654;21.250;2023-05-21T08:33:36;3.00;;;1.40;;
59310;SDS011;45078;51.654;21.250;2023-05-21T08:36:03;6.20;;;1.70;;
59310;SDS011;45078;51.654;21.250;2023-05-21T08:38:29;5.13;;;2.00;;
59310;SDS011;45078;51.654;21.250;2023-05-21T08:40:55;2.80;;;1.88;;
59310;SDS011;45078;51.654;21.250;2023-05-21T08:43:23;2.42;;;1.63;;
59310;SDS011;45078;51.654;21.250;2023-05-21T08:45:54;4.45;;;1.65;;
59310;SDS011;45078;51.654;21.250;2023-05-21T08:48:22;2.80;;;1.67;;
59310;SDS011;45078;51.654;21.250;2023-05-21T08:50:52;2.85;;;1.60;;
59310;SDS011;45078;51.654;21.250;2023-05-21T08:53:19;6.03;;;1.80;;
59310;SDS011;45078;51.654;21.250;2023-05-21T08:55:49;3.15;;;1.60;;
59310;SDS011;45078;51.654;21.250;2023-05-21T08:58:18;3.97;;;1.75;;
59310;SDS011;45078;51.654;21.250;2023-05-21T09:00:44;6.20;;;1.88;;
59310;SDS011;45078;51.654;21.250;2023-05-21T09:03:10;5.20;;;1.75;;
59310;SDS011;45078;51.654;21.250;2023-05-21T09:05:40;3.38;;;1.40;;
59310;SDS011;45078;51.654;21.250;2023-05-21T09:10:55;3.13;;;1.63;;
59310;SDS011;45078;51.654;21.250;2023-05-21T09:13:20;4.75;;;1.70;;
59310;SDS011;45078;51.654;21.250;2023-05-21T09:15:48;2.53;;;1.65;;
59310;SDS011;45078;51.654;21.250;2023-05-21T09:18:15;2.38;;;1.60;;
59310;SDS011;45078;51.654;21.250;2023-05-21T09:20:41;2.90;;;1.40;;
59310;SDS011;45078;51.654;21.250;2023-05-21T09:23:08;2.80;;;1.33;;
59310;SDS011;45078;51.654;21.250;2023-05-21T09:25:40;2.30;;;1.33;;
59310;SDS011;45078;51.654;21.250;2023-05-21T09:28:11;4.50;;;1.63;;
59310;SDS011;45078;51.654;21.250;2023-05-21T09:30:42;3.25;;;1.52;;
59310;SDS011;45078;51.654;21.250;2023-05-21T09:33:09;2.88;;;1.50;;
59310;SDS011;45078;51.654;21.250;2023-05-21T09:35:36;3.25;;;1.75;;
59310;SDS011;45078;51.654;21.250;2023-05-21T09:38:02;4.15;;;1.70;;
59310;SDS011;45078;51.654;21.250;2023-05-21T09:40:33;3.25;;;1.75;;
59310;SDS011;45078;51.654;21.250;2023-05-21T09:42:59;4.35;;;1.60;;
59310;SDS011;45078;51.654;21.250;2023-05-21T09:45:26;2.30;;;1.40;;
59310;SDS011;45078;51.654;21.250;2023-05-21T09:47:53;3.03;;;1.48;;
59310;SDS011;45078;51.654;21.250;2023-05-21T09:50:23;2.80;;;1.50;;
59310;SDS011;45078;51.654;21.250;2023-05-21T09:52:52;5.13;;;1.92;;
59310;SDS011;45078;51.654;21.250;2023-05-21T09:55:23;2.33;;;1.60;;
59310;SDS011;45078;51.654;21.250;2023-05-21T09:57:50;3.08;;;1.50;;
59310;SDS011;45078;51.654;21.250;2023-05-21T10:00:18;3.20;;;1.75;;
59310;SDS011;45078;51.654;21.250;2023-05-21T10:02:49;2.15;;;1.50;;
59310;SDS011;45078;51.654;21.250;2023-05-21T10:05:18;5.18;;;1.67;;
59310;SDS011;45078;51.654;21.250;2023-05-21T10:07:48;2.45;;;1.67;;
59310;SDS011;45078;51.654;21.250;2023-05-21T10:10:15;3.58;;;1.73;;
59310;SDS011;45078;51.654;21.250;2023-05-21T10:12:45;4.63;;;1.67;;
59310;SDS011;45078;51.654;21.250;2023-05-21T10:15:13;5.22;;;1.33;;
59310;SDS011;45078;51.654;21.250;2023-05-21T10:17:41;2.55;;;1.30;;
59310;SDS011;45078;51.654;21.250;2023-05-21T10:20:09;3.30;;;1.48;;
59310;SDS011;45078;51.654;21.250;2023-05-21T10:22:36;4.15;;;1.70;;
59310;SDS011;45078;51.654;21.250;2023-05-21T10:25:02;2.33;;;1.30;;
59310;SDS011;45078;51.654;21.250;2023-05-21T10:27:31;3.08;;;1.90;;
59310;SDS011;45078;51.654;21.250;2023-05-21T10:29:58;3.65;;;1.65;;
59310;SDS011;45078;51.654;21.250;2023-05-21T10:32:25;3.35;;;1.60;;
59310;SDS011;45078;51.654;21.250;2023-05-21T10:34:54;5.90;;;1.75;;
59310;SDS011;45078;51.654;21.250;2023-05-21T10:37:24;4.00;;;1.95;;
59310;SDS011;45078;51.654;21.250;2023-05-21T10:39:51;3.70;;;1.58;;
59310;SDS011;45078;51.654;21.250;2023-05-21T10:45:01;6.13;;;1.50;;
59310;SDS011;45078;51.654;21.250;2023-05-21T11:01:19;4.15;;;1.70;;
59310;SDS011;45078;51.654;21.250;2023-05-21T11:03:45;2.90;;;2.08;;
59310;SDS011;45078;51.654;21.250;2023-05-21T11:06:20;3.75;;;1.77;;
59310;SDS011;45078;51.654;21.250;2023-05-21T11:08:50;4.68;;;1.80;;
59310;SDS011;45078;51.654;21.250;2023-05-21T11:14:55;5.13;;;1.77;;
59310;SDS011;45078;51.654;21.250;2023-05-21T11:20:07;4.88;;;1.52;;
59310;SDS011;45078;51.654;21.250;2023-05-21T11:22:40;4.10;;;1.90;;
59310;SDS011;45078;51.654;21.250;2023-05-21T11:25:06;3.80;;;1.48;;
59310;SDS011;45078;51.654;21.250;2023-05-21T11:27:36;4.05;;;1.80;;
59310;SDS011;45078;51.654;21.250;2023-05-21T11:32:39;4.47;;;1.88;;
59310;SDS011;45078;51.654;21.250;2023-05-21T11:35:37;3.17;;;1.45;;
59310;SDS011;45078;51.654;21.250;2023-05-21T11:38:09;3.40;;;1.58;;
59310;SDS011;45078;51.654;21.250;2023-05-21T11:40:35;3.90;;;1.60;;
59310;SDS011;45078;51.654;21.250;2023-05-21T11:43:01;3.45;;;1.60;;
59310;SDS011;45078;51.654;21.250;2023-05-21T11:45:27;2.47;;;1.60;;
59310;SDS011;45078;51.654;21.250;2023-05-21T11:47:55;5.15;;;1.63;;
59310;SDS011;45078;51.654;21.250;2023-05-21T11:50:21;3.20;;;1.70;;
59310;SDS011;45078;51.654;21.250;2023-05-21T11:52:47;5.65;;;1.90;;
59310;SDS011;45078;51.654;21.250;2023-05-21T11:55:14;5.75;;;1.73;;
59310;SDS011;45078;51.654;21.250;2023-05-21T11:57:45;4.88;;;1.63;;
59310;SDS011;45078;51.654;21.250;2023-05-21T12:00:14;2.63;;;1.90;;
59310;SDS011;45078;51.654;21.250;2023-05-21T12:02:48;3.55;;;1.77;;
59310;SDS011;45078;51.654;21.250;2023-05-21T12:05:15;2.83;;;1.48;;
59310;SDS011;45078;51.654;21.250;2023-05-21T12:07:41;4.68;;;1.50;;
59310;SDS011;45078;51.654;21.250;2023-05-21T12:10:12;4.60;;;1.75;;
59310;SDS011;45078;51.654;21.250;2023-05-21T12:12:38;2.30;;;1.70;;
59310;SDS011;45078;51.654;21.250;2023-05-21T12:15:04;2.83;;;1.70;;
59310;SDS011;45078;51.654;21.250;2023-05-21T12:17:31;2.67;;;1.63;;
59310;SDS011;45078;51.654;21.250;2023-05-21T12:19:57;3.17;;;1.73;;
59310;SDS011;45078;51.654;21.250;2023-05-21T12:22:23;3.10;;;1.65;;
59310;SDS011;45078;51.654;21.250;2023-05-21T12:24:51;3.83;;;1.50;;
59310;SDS011;45078;51.654;21.250;2023-05-21T12:27:18;2.70;;;1.52;;
59310;SDS011;45078;51.654;21.250;2023-05-21T12:29:47;5.13;;;2.08;;
59310;SDS011;45078;51.654;21.250;2023-05-21T12:32:15;3.45;;;1.30;;
59310;SDS011;45078;51.654;21.250;2023-05-21T12:34:48;6.00;;;1.70;;
59310;SDS011;45078;51.654;21.250;2023-05-21T12:37:27;3.35;;;1.63;;
59310;SDS011;45078;51.654;21.250;2023-05-21T12:40:00;3.22;;;1.70;;
59310;SDS011;45078;51.654;21.250;2023-05-21T12:42:31;4.25;;;1.50;;
59310;SDS011;45078;51.654;21.250;2023-05-21T12:45:04;4.75;;;1.58;;
59310;SDS011;45078;51.654;21.250;2023-05-21T12:47:31;3.53;;;1.45;;
59310;SDS011;45078;51.654;21.250;2023-05-21T12:49:57;5.18;;;1.85;;
59310;SDS011;45078;51.654;21.250;2023-05-21T12:52:24;11.02;;;1.80;;
59310;SDS011;45078;51.654;21.250;2023-05-21T12:54:54;4.00;;;1.60;;
59310;SDS011;45078;51.654;21.250;2023-05-21T12:57:21;6.00;;;1.63;;
59310;SDS011;45078;51.654;21.250;2023-05-21T12:59:53;3.83;;;1.50;;
59310;SDS011;45078;51.654;21.250;2023-05-21T13:02:28;2.85;;;1.50;;
59310;SDS011;45078;51.654;21.250;2023-05-21T13:07:28;3.42;;;1.60;;
59310;SDS011;45078;51.654;21.250;2023-05-21T13:09:59;3.80;;;1.80;;
59310;SDS011;45078;51.654;21.250;2023-05-21T13:12:26;3.40;;;1.42;;
59310;SDS011;45078;51.654;21.250;2023-05-21T13:14:54;4.93;;;1.52;;
59310;SDS011;45078;51.654;21.250;2023-05-21T13:17:21;4.65;;;1.67;;
59310;SDS011;45078;51.654;21.250;2023-05-21T13:22:37;8.23;;;1.63;;
59310;SDS011;45078;51.654;21.250;2023-05-21T13:25:06;4.43;;;1.33;;
59310;SDS011;45078;51.654;21.250;2023-05-21T13:27:33;6.95;;;1.60;;
59310;SDS011;45078;51.654;21.250;2023-05-21T13:29:59;2.35;;;1.50;;
59310;SDS011;45078;51.654;21.250;2023-05-21T13:32:25;4.03;;;1.70;;
59310;SDS011;45078;51.654;21.250;2023-05-21T13:34:51;3.95;;;1.40;;
59310;SDS011;45078;51.654;21.250;2023-05-21T13:37:17;4.43;;;1.60;;
59310;SDS011;45078;51.654;21.250;2023-05-21T13:39:44;2.38;;;1.50;;
59310;SDS011;45078;51.654;21.250;2023-05-21T13:42:11;5.13;;;1.77;;
59310;SDS011;45078;51.654;21.250;2023-05-21T13:44:37;4.50;;;1.63;;
59310;SDS011;45078;51.654;21.250;2023-05-21T13:47:03;3.10;;;1.70;;
59310;SDS011;45078;51.654;21.250;2023-05-21T13:49:29;2.28;;;1.40;;
59310;SDS011;45078;51.654;21.250;2023-05-21T13:51:55;2.67;;;1.52;;
59310;SDS011;45078;51.654;21.250;2023-05-21T13:54:22;3.00;;;1.33;;
59310;SDS011;45078;51.654;21.250;2023-05-21T13:56:48;3.80;;;1.55;;
59310;SDS011;45078;51.654;21.250;2023-05-21T13:59:14;3.40;;;1.38;;
59310;SDS011;45078;51.654;21.250;2023-05-21T14:01:40;2.05;;;1.30;;
59310;SDS011;45078;51.654;21.250;2023-05-21T14:04:05;2.45;;;1.48;;
59310;SDS011;45078;51.654;21.250;2023-05-21T14:06:32;2.92;;;1.33;;
59310;SDS011;45078;51.654;21.250;2023-05-21T14:08:59;3.42;;;1.35;;
59310;SDS011;45078;51.654;21.250;2023-05-21T14:11:25;4.15;;;1.88;;
59310;SDS011;45078;51.654;21.250;2023-05-21T14:13:55;2.75;;;1.73;;
59310;SDS011;45078;51.654;21.250;2023-05-21T14:16:21;2.03;;;1.40;;
59310;SDS011;45078;51.654;21.250;2023-05-21T14:18:48;3.40;;;1.58;;
59310;SDS011;45078;51.654;21.250;2023-05-21T14:21:14;3.67;;;1.48;;
59310;SDS011;45078;51.654;21.250;2023-05-21T14:23:40;3.00;;;1.45;;
59310;SDS011;45078;51.654;21.250;2023-05-21T14:26:06;1.88;;;1.13;;
59310;SDS011;45078;51.654;21.250;2023-05-21T14:28:32;2.70;;;1.70;;
59310;SDS011;45078;51.654;21.250;2023-05-21T14:30:57;2.30;;;1.30;;
59310;SDS011;45078;51.654;21.250;2023-05-21T14:33:23;2.63;;;1.27;;
59310;SDS011;45078;51.654;21.250;2023-05-21T14:35:49;2.53;;;1.40;;
59310;SDS011;45078;51.654;21.250;2023-05-21T14:38:15;5.40;;;1.60;;
59310;SDS011;45078;51.654;21.250;2023-05-21T14:40:41;3.58;;;1.20;;
59310;SDS011;45078;51.654;21.250;2023-05-21T14:43:06;1.52;;;1.10;;
59310;SDS011;45078;51.654;21.250;2023-05-21T14:45:32;1.90;;;1.20;;
59310;SDS011;45078;51.654;21.250;2023-05-21T14:48:00;2.90;;;1.30;;
59310;SDS011;45078;51.654;21.250;2023-05-21T14:50:27;2.60;;;1.25;;
59310;SDS011;45078;51.654;21.250;2023-05-21T14:52:52;2.45;;;1.20;;
59310;SDS011;45078;51.654;21.250;2023-05-21T14:55:18;3.60;;;1.13;;
59310;SDS011;45078;51.654;21.250;2023-05-21T14:57:46;2.47;;;1.20;;
59310;SDS011;45078;51.654;21.250;2023-05-21T15:00:12;4.88;;;1.60;;
59310;SDS011;45078;51.654;21.250;2023-05-21T15:02:38;1.85;;;1.10;;
59310;SDS011;45078;51.654;21.250;2023-05-21T15:05:04;2.75;;;1.10;;
59310;SDS011;45078;51.654;21.250;2023-05-21T15:07:30;2.22;;;1.30;;
59310;SDS011;45078;51.654;21.250;2023-05-21T15:09:56;3.70;;;1.40;;
59310;SDS011;45078;51.654;21.250;2023-05-21T15:12:22;2.60;;;1.50;;
59310;SDS011;45078;51.654;21.250;2023-05-21T15:14:48;5.03;;;1.50;;